sensor_id;sensor_type;location;lat;lon;timestamp;temperature;humidity
31231;DHT22;17852;51.170;6.830;2024-03-08T00:00:27;3.80;99.90
31231;DHT22;17852;51.170;6.830;2024-03-08T00:02:56;3.80;99.90
31231;DHT22;17852;51.170;6.830;2024-03-08T00:05:22;3.80;99.90
31231;DHT22;17852;51.170;6.830;2024-03-08T00:07:48;3.80;99.90
31231;DHT22;17852;51.170;6.830;2024-03-08T00:10:13;3.80;99.90
31231;DHT22;17852;51.170;6.830;2024-03-08T00:12:45;3.70;99.90
31231;DHT22;17852;51.170;6.830;2024-03-08T00:15:13;3.70;99.90
31231;DHT22;17852;51.170;6.830;2024-03-08T00:17:44;3.70;99.90
31231;DHT22;17852;51.170;6.830;2024-03-08T00:20:10;3.60;99.90
31231;DHT22;17852;51.170;6.830;2024-03-08T00:22:37;3.50;99.90
31231;DHT22;17852;51.170;6.830;2024-03-08T00:25:04;3.50;99.90
31231;DHT22;17852;51.170;6.830;2024-03-08T00:27:29;3.50;99.90
31231;DHT22;17852;51.170;6.830;2024-03-08T00:29:59;3.50;99.90
31231;DHT22;17852;51.170;6.830;2024-03-08T00:32:25;3.40;99.90
31231;DHT22;17852;51.170;6.830;2024-03-08T00:34:55;3.40;99.90
31231;DHT22;17852;51.170;6.830;2024-03-08T00:37:21;3.50;99.90
31231;DHT22;17852;51.170;6.830;2024-03-08T00:39:50;3.40;99.90
31231;DHT22;17852;51.170;6.830;2024-03-08T00:42:19;3.40;99.90
31231;DHT22;17852;51.170;6.830;2024-03-08T00:44:46;3.40;99.90
31231;DHT22;17852;51.170;6.830;2024-03-08T00:47:12;3.40;99.90
31231;DHT22;17852;51.170;6.830;2024-03-08T00:49:38;3.40;99.90
31231;DHT22;17852;51.170;6.830;2024-03-08T00:52:06;3.40;99.90
31231;DHT22;17852;51.170;6.830;2024-03-08T00:54:33;3.30;99.90
31231;DHT22;17852;51.170;6.830;2024-03-08T00:56:58;3.30;99.90
31231;DHT22;17852;51.170;6.830;2024-03-08T00:59:26;3.30;99.90
31231;DHT22;17852;51.170;6.830;2024-03-08T01:01:51;3.30;99.90
31231;DHT22;17852;51.170;6.830;2024-03-08T01:04:17;3.20;99.90
31231;DHT22;17852;51.170;6.830;2024-03-08T01:06:44;3.20;99.90
31231;DHT22;17852;51.170;6.830;2024-03-08T01:09:13;3.20;99.90
31231;DHT22;17852;51.170;6.830;2024-03-08T01:11:39;3.20;99.90
31231;DHT22;17852;51.170;6.830;2024-03-08T01:14:05;3.20;99.90
31231;DHT22;17852;51.170;6.830;2024-03-08T01:16:30;3.10;99.90
31231;DHT22;17852;51.170;6.830;2024-03-08T01:18:58;3.10;99.90
31231;DHT22;17852;51.170;6.830;2024-03-08T01:21:24;3.00;99.90
31231;DHT22;17852;51.170;6.830;2024-03-08T01:23:50;3.00;99.90
31231;DHT22;17852;51.170;6.830;2024-03-08T01:26:15;3.00;99.90
31231;DHT22;17852;51.170;6.830;2024-03-08T01:28:41;3.00;99.90
31231;DHT22;17852;51.170;6.830;2024-03-08T01:31:07;3.00;99.90
31231;DHT22;17852;51.170;6.830;2024-03-08T01:33:33;3.00;99.90
31231;DHT22;17852;51.170;6.830;2024-03-08T01:35:59;2.90;99.90
31231;DHT22;17852;51.170;6.830;2024-03-08T01:38:24;2.90;99.90
31231;DHT22;17852;51.170;6.830;2024-03-08T01:40:50;2.90;99.90
31231;DHT22;17852;51.170;6.830;2024-03-08T01:43:26;2.90;99.90
31231;DHT22;17852;51.170;6.830;2024-03-08T01:45:57;2.80;99.90
31231;DHT22;17852;51.170;6.830;2024-03-08T01:48:24;2.80;99.90
31231;DHT22;17852;51.170;6.830;2024-03-08T01:50:50;2.80;99.90
31231;DHT22;17852;51.170;6.830;2024-03-08T01:53:18;2.80;99.90
31231;DHT22;17852;51.170;6.830;2024-03-08T01:55:45;2.80;99.90
31231;DHT22;17852;51.170;6.830;2024-03-08T01:58:12;2.70;99.90
31231;DHT22;17852;51.170;6.830;2024-03-08T02:00:42;2.70;99.90
31231;DHT22;17852;51.170;6.830;2024-03-08T02:03:09;2.70;99.90
31231;DHT22;17852;51.170;6.830;2024-03-08T02:05:36;2.80;99.90
31231;DHT22;17852;51.170;6.830;2024-03-08T02:08:04;2.80;99.90
31231;DHT22;17852;51.170;6.830;2024-03-08T02:10:33;2.80;99.90
31231;DHT22;17852;51.170;6.830;2024-03-08T02:13:03;2.90;99.90
31231;DHT22;17852;51.170;6.830;2024-03-08T02:15:58;2.90;99.90
31231;DHT22;17852;51.170;6.830;2024-03-08T02:18:28;2.90;99.90
31231;DHT22;17852;51.170;6.830;2024-03-08T02:20:55;2.90;99.90
31231;DHT22;17852;51.170;6.830;2024-03-08T02:23:22;2.80;99.90
31231;DHT22;17852;51.170;6.830;2024-03-08T02:25:49;2.90;99.90
31231;DHT22;17852;51.170;6.830;2024-03-08T02:28:15;2.90;99.90
31231;DHT22;17852;51.170;6.830;2024-03-08T02:30:41;2.90;99.90
31231;DHT22;17852;51.170;6.830;2024-03-08T02:33:07;2.80;99.90
31231;DHT22;17852;51.170;6.830;2024-03-08T02:35:35;2.80;99.90
31231;DHT22;17852;51.170;6.830;2024-03-08T02:38:02;2.90;99.90
31231;DHT22;17852;51.170;6.830;2024-03-08T02:40:31;2.80;99.90
31231;DHT22;17852;51.170;6.830;2024-03-08T02:42:58;2.80;99.90
31231;DHT22;17852;51.170;6.830;2024-03-08T02:45:24;2.80;99.90
31231;DHT22;17852;51.170;6.830;2024-03-08T02:47:50;2.80;99.90
31231;DHT22;17852;51.170;6.830;2024-03-08T02:50:16;2.70;99.90
31231;DHT22;17852;51.170;6.830;2024-03-08T02:52:42;2.70;99.90
31231;DHT22;17852;51.170;6.830;2024-03-08T02:55:09;2.70;99.90
31231;DHT22;17852;51.170;6.830;2024-03-08T02:57:36;2.70;99.90
31231;DHT22;17852;51.170;6.830;2024-03-08T03:00:02;2.70;99.90
31231;DHT22;17852;51.170;6.830;2024-03-08T03:02:29;2.70;99.90
31231;DHT22;17852;51.170;6.830;2024-03-08T03:04:55;2.70;99.90
31231;DHT22;17852;51.170;6.830;2024-03-08T03:07:21;2.70;99.90
31231;DHT22;17852;51.170;6.830;2024-03-08T03:09:47;2.70;99.90
31231;DHT22;17852;51.170;6.830;2024-03-08T03:12:13;2.60;99.90
31231;DHT22;17852;51.170;6.830;2024-03-08T03:14:40;2.60;99.90
31231;DHT22;17852;51.170;6.830;2024-03-08T03:17:05;2.60;99.90
31231;DHT22;17852;51.170;6.830;2024-03-08T03:19:31;2.70;99.90
31231;DHT22;17852;51.170;6.830;2024-03-08T03:21:57;2.70;99.90
31231;DHT22;17852;51.170;6.830;2024-03-08T03:24:23;2.80;99.90
31231;DHT22;17852;51.170;6.830;2024-03-08T03:26:49;2.70;99.90
31231;DHT22;17852;51.170;6.830;2024-03-08T03:29:15;2.70;99.90
31231;DHT22;17852;51.170;6.830;2024-03-08T03:31:42;2.70;99.90
31231;DHT22;17852;51.170;6.830;2024-03-08T03:34:11;2.70;99.90
31231;DHT22;17852;51.170;6.830;2024-03-08T03:36:37;2.70;99.90
31231;DHT22;17852;51.170;6.830;2024-03-08T03:39:08;2.70;99.90
31231;DHT22;17852;51.170;6.830;2024-03-08T03:41:41;2.70;99.90
31231;DHT22;17852;51.170;6.830;2024-03-08T03:44:07;2.70;99.90
31231;DHT22;17852;51.170;6.830;2024-03-08T03:46:33;2.70;99.90
31231;DHT22;17852;51.170;6.830;2024-03-08T03:48:59;2.80;99.90
31231;DHT22;17852;51.170;6.830;2024-03-08T03:51:25;2.70;99.90
31231;DHT22;17852;51.170;6.830;2024-03-08T03:53:51;2.70;99.90
31231;DHT22;17852;51.170;6.830;2024-03-08T03:56:18;2.60;99.90
31231;DHT22;17852;51.170;6.830;2024-03-08T03:58:44;2.50;99.90
31231;DHT22;17852;51.170;6.830;2024-03-08T04:01:09;2.50;99.90
31231;DHT22;17852;51.170;6.830;2024-03-08T04:03:35;2.50;99.90
31231;DHT22;17852;51.170;6.830;2024-03-08T04:06:04;2.40;99.90
31231;DHT22;17852;51.170;6.830;2024-03-08T04:08:30;2.40;99.90
31231;DHT22;17852;51.170;6.830;2024-03-08T04:10:56;2.40;99.90
31231;DHT22;17852;51.170;6.830;2024-03-08T04:13:23;2.40;99.90
31231;DHT22;17852;51.170;6.830;2024-03-08T04:15:52;2.30;99.90
31231;DHT22;17852;51.170;6.830;2024-03-08T04:18:18;2.30;99.90
31231;DHT22;17852;51.170;6.830;2024-03-08T04:20:44;2.30;99.90
31231;DHT22;17852;51.170;6.830;2024-03-08T04:23:10;2.30;99.90
31231;DHT22;17852;51.170;6.830;2024-03-08T04:25:36;2.40;99.90
31231;DHT22;17852;51.170;6.830;2024-03-08T04:28:02;2.50;99.90
31231;DHT22;17852;51.170;6.830;2024-03-08T04:30:28;2.50;99.90
31231;DHT22;17852;51.170;6.830;2024-03-08T04:32:54;2.40;99.90
31231;DHT22;17852;51.170;6.830;2024-03-08T04:35:20;2.30;99.90
31231;DHT22;17852;51.170;6.830;2024-03-08T04:37:51;2.30;99.90
31231;DHT22;17852;51.170;6.830;2024-03-08T04:40:17;2.30;99.90
31231;DHT22;17852;51.170;6.830;2024-03-08T04:42:44;2.30;99.90
31231;DHT22;17852;51.170;6.830;2024-03-08T04:45:09;2.30;99.90
31231;DHT22;17852;51.170;6.830;2024-03-08T04:47:36;2.30;99.90
31231;DHT22;17852;51.170;6.830;2024-03-08T04:50:02;2.30;99.90
31231;DHT22;17852;51.170;6.830;2024-03-08T04:52:28;2.20;99.90
31231;DHT22;17852;51.170;6.830;2024-03-08T04:54:54;2.20;99.90
31231;DHT22;17852;51.170;6.830;2024-03-08T04:57:19;2.10;99.90
31231;DHT22;17852;51.170;6.830;2024-03-08T04:59:46;2.10;99.90
31231;DHT22;17852;51.170;6.830;2024-03-08T05:02:11;2.10;99.90
31231;DHT22;17852;51.170;6.830;2024-03-08T05:04:37;2.10;99.90
31231;DHT22;17852;51.170;6.830;2024-03-08T05:07:03;2.10;99.90
31231;DHT22;17852;51.170;6.830;2024-03-08T05:09:29;2.20;99.90
31231;DHT22;17852;51.170;6.830;2024-03-08T05:11:57;2.20;99.90
31231;DHT22;17852;51.170;6.830;2024-03-08T05:14:25;2.30;99.90
31231;DHT22;17852;51.170;6.830;2024-03-08T05:16:51;2.30;99.90
31231;DHT22;17852;51.170;6.830;2024-03-08T05:19:18;2.30;99.90
31231;DHT22;17852;51.170;6.830;2024-03-08T05:21:48;2.40;99.90
31231;DHT22;17852;51.170;6.830;2024-03-08T05:24:15;2.50;99.90
31231;DHT22;17852;51.170;6.830;2024-03-08T05:26:43;2.50;99.90
31231;DHT22;17852;51.170;6.830;2024-03-08T05:29:10;2.60;99.90
31231;DHT22;17852;51.170;6.830;2024-03-08T05:31:48;2.70;99.90
31231;DHT22;17852;51.170;6.830;2024-03-08T05:34:15;2.60;99.90
31231;DHT22;17852;51.170;6.830;2024-03-08T05:36:42;2.60;99.90
31231;DHT22;17852;51.170;6.830;2024-03-08T05:39:13;2.60;99.90
31231;DHT22;17852;51.170;6.830;2024-03-08T05:41:43;2.60;99.90
31231;DHT22;17852;51.170;6.830;2024-03-08T05:44:12;2.60;99.90
31231;DHT22;17852;51.170;6.830;2024-03-08T05:46:39;2.60;99.90
31231;DHT22;17852;51.170;6.830;2024-03-08T05:49:08;2.70;99.90
31231;DHT22;17852;51.170;6.830;2024-03-08T05:51:36;2.80;99.90
31231;DHT22;17852;51.170;6.830;2024-03-08T05:54:03;2.80;99.90
31231;DHT22;17852;51.170;6.830;2024-03-08T05:56:31;2.90;99.90
31231;DHT22;17852;51.170;6.830;2024-03-08T05:58:57;2.90;99.90
31231;DHT22;17852;51.170;6.830;2024-03-08T06:01:26;2.90;99.90
31231;DHT22;17852;51.170;6.830;2024-03-08T06:03:56;2.90;99.90
31231;DHT22;17852;51.170;6.830;2024-03-08T06:06:25;2.90;99.90
31231;DHT22;17852;51.170;6.830;2024-03-08T06:08:51;3.10;99.90
31231;DHT22;17852;51.170;6.830;2024-03-08T06:11:18;3.00;99.90
31231;DHT22;17852;51.170;6.830;2024-03-08T06:13:45;3.10;99.90
31231;DHT22;17852;51.170;6.830;2024-03-08T06:16:12;3.10;99.90
31231;DHT22;17852;51.170;6.830;2024-03-08T06:18:38;3.10;99.90
31231;DHT22;17852;51.170;6.830;2024-03-08T06:21:05;3.30;99.90
31231;DHT22;17852;51.170;6.830;2024-03-08T06:23:35;3.20;99.90
31231;DHT22;17852;51.170;6.830;2024-03-08T06:26:10;3.20;99.90
31231;DHT22;17852;51.170;6.830;2024-03-08T06:28:41;3.30;99.90
31231;DHT22;17852;51.170;6.830;2024-03-08T06:31:07;3.40;99.90
31231;DHT22;17852;51.170;6.830;2024-03-08T06:33:34;3.40;99.90
31231;DHT22;17852;51.170;6.830;2024-03-08T06:36:00;3.50;99.90
31231;DHT22;17852;51.170;6.830;2024-03-08T06:38:26;3.50;99.90
31231;DHT22;17852;51.170;6.830;2024-03-08T06:40:52;3.60;99.90
31231;DHT22;17852;51.170;6.830;2024-03-08T06:43:19;3.70;99.90
31231;DHT22;17852;51.170;6.830;2024-03-08T06:45:45;3.70;99.90
31231;DHT22;17852;51.170;6.830;2024-03-08T06:48:20;3.80;99.90
31231;DHT22;17852;51.170;6.830;2024-03-08T06:50:47;3.90;99.90
31231;DHT22;17852;51.170;6.830;2024-03-08T06:53:15;3.90;99.90
31231;DHT22;17852;51.170;6.830;2024-03-08T06:55:44;3.90;99.90
31231;DHT22;17852;51.170;6.830;2024-03-08T06:58:10;3.90;99.90
31231;DHT22;17852;51.170;6.830;2024-03-08T07:00:38;4.00;99.90
31231;DHT22;17852;51.170;6.830;2024-03-08T07:03:08;4.00;99.90
31231;DHT22;17852;51.170;6.830;2024-03-08T07:05:37;4.10;99.90
31231;DHT22;17852;51.170;6.830;2024-03-08T07:08:03;4.20;99.90
31231;DHT22;17852;51.170;6.830;2024-03-08T07:10:29;4.20;99.90
31231;DHT22;17852;51.170;6.830;2024-03-08T07:12:55;4.30;99.90
31231;DHT22;17852;51.170;6.830;2024-03-08T07:15:20;4.30;99.90
31231;DHT22;17852;51.170;6.830;2024-03-08T07:17:47;4.30;99.90
31231;DHT22;17852;51.170;6.830;2024-03-08T07:20:13;4.40;99.90
31231;DHT22;17852;51.170;6.830;2024-03-08T07:22:41;4.40;99.90
31231;DHT22;17852;51.170;6.830;2024-03-08T07:25:07;4.50;99.90
31231;DHT22;17852;51.170;6.830;2024-03-08T07:27:49;4.50;99.90
31231;DHT22;17852;51.170;6.830;2024-03-08T07:30:15;4.60;99.90
31231;DHT22;17852;51.170;6.830;2024-03-08T07:32:59;4.60;99.90
31231;DHT22;17852;51.170;6.830;2024-03-08T07:35:25;4.70;99.90
31231;DHT22;17852;51.170;6.830;2024-03-08T07:37:54;4.70;99.90
31231;DHT22;17852;51.170;6.830;2024-03-08T07:40:26;4.80;99.90
31231;DHT22;17852;51.170;6.830;2024-03-08T07:42:52;4.80;99.90
31231;DHT22;17852;51.170;6.830;2024-03-08T07:45:18;4.80;99.90
31231;DHT22;17852;51.170;6.830;2024-03-08T07:47:44;4.90;99.90
31231;DHT22;17852;51.170;6.830;2024-03-08T07:50:11;5.00;99.90
31231;DHT22;17852;51.170;6.830;2024-03-08T07:52:41;5.10;99.90
31231;DHT22;17852;51.170;6.830;2024-03-08T07:55:08;5.10;99.90
31231;DHT22;17852;51.170;6.830;2024-03-08T07:57:35;5.20;99.90
31231;DHT22;17852;51.170;6.830;2024-03-08T08:00:05;5.30;99.90
31231;DHT22;17852;51.170;6.830;2024-03-08T08:02:34;5.40;99.90
31231;DHT22;17852;51.170;6.830;2024-03-08T08:05:01;5.50;99.90
31231;DHT22;17852;51.170;6.830;2024-03-08T08:07:27;5.60;99.90
31231;DHT22;17852;51.170;6.830;2024-03-08T08:09:53;5.70;99.90
31231;DHT22;17852;51.170;6.830;2024-03-08T08:12:22;5.80;99.90
31231;DHT22;17852;51.170;6.830;2024-03-08T08:14:56;5.90;99.90
31231;DHT22;17852;51.170;6.830;2024-03-08T08:17:25;6.00;99.90
31231;DHT22;17852;51.170;6.830;2024-03-08T08:20:13;6.10;99.90
31231;DHT22;17852;51.170;6.830;2024-03-08T08:22:40;6.20;99.90
31231;DHT22;17852;51.170;6.830;2024-03-08T08:25:07;6.30;99.90
31231;DHT22;17852;51.170;6.830;2024-03-08T08:27:33;6.40;99.90
31231;DHT22;17852;51.170;6.830;2024-03-08T08:29:58;6.50;99.90
31231;DHT22;17852;51.170;6.830;2024-03-08T08:32:24;6.60;99.90
31231;DHT22;17852;51.170;6.830;2024-03-08T08:34:50;6.70;99.90
31231;DHT22;17852;51.170;6.830;2024-03-08T08:37:17;6.80;99.90
31231;DHT22;17852;51.170;6.830;2024-03-08T08:39:43;6.80;99.90
31231;DHT22;17852;51.170;6.830;2024-03-08T08:42:09;6.90;99.90
31231;DHT22;17852;51.170;6.830;2024-03-08T08:44:35;7.00;99.90
31231;DHT22;17852;51.170;6.830;2024-03-08T08:47:06;7.10;99.90
31231;DHT22;17852;51.170;6.830;2024-03-08T08:49:37;7.10;99.90
31231;DHT22;17852;51.170;6.830;2024-03-08T08:52:12;7.10;99.90
31231;DHT22;17852;51.170;6.830;2024-03-08T08:54:38;7.10;99.90
31231;DHT22;17852;51.170;6.830;2024-03-08T08:57:04;7.20;99.90
31231;DHT22;17852;51.170;6.830;2024-03-08T08:59:34;7.30;99.90
31231;DHT22;17852;51.170;6.830;2024-03-08T09:02:10;7.40;99.90
31231;DHT22;17852;51.170;6.830;2024-03-08T09:04:38;7.40;99.90
31231;DHT22;17852;51.170;6.830;2024-03-08T09:07:09;7.50;99.90
31231;DHT22;17852;51.170;6.830;2024-03-08T09:09:42;7.40;99.90
31231;DHT22;17852;51.170;6.830;2024-03-08T09:12:10;7.50;99.90
31231;DHT22;17852;51.170;6.830;2024-03-08T09:15:24;7.50;99.90
31231;DHT22;17852;51.170;6.830;2024-03-08T09:17:58;7.60;99.90
31231;DHT22;17852;51.170;6.830;2024-03-08T09:20:24;7.70;99.90
31231;DHT22;17852;51.170;6.830;2024-03-08T09:22:54;7.80;99.90
31231;DHT22;17852;51.170;6.830;2024-03-08T09:25:20;7.80;99.90
31231;DHT22;17852;51.170;6.830;2024-03-08T09:27:46;7.80;99.90
31231;DHT22;17852;51.170;6.830;2024-03-08T09:30:12;7.80;99.90
31231;DHT22;17852;51.170;6.830;2024-03-08T09:32:41;7.80;99.90
31231;DHT22;17852;51.170;6.830;2024-03-08T09:35:16;8.00;99.90
31231;DHT22;17852;51.170;6.830;2024-03-08T09:37:42;8.00;99.90
31231;DHT22;17852;51.170;6.830;2024-03-08T09:40:21;8.10;99.90
31231;DHT22;17852;51.170;6.830;2024-03-08T09:42:52;8.30;99.90
31231;DHT22;17852;51.170;6.830;2024-03-08T09:48:45;8.30;99.90
31231;DHT22;17852;51.170;6.830;2024-03-08T09:51:34;8.40;99.90
31231;DHT22;17852;51.170;6.830;2024-03-08T09:54:06;8.60;99.90
31231;DHT22;17852;51.170;6.830;2024-03-08T09:56:41;8.50;99.90
31231;DHT22;17852;51.170;6.830;2024-03-08T09:59:10;8.40;99.90
31231;DHT22;17852;51.170;6.830;2024-03-08T10:01:51;8.50;99.90
31231;DHT22;17852;51.170;6.830;2024-03-08T10:04:25;8.60;99.90
31231;DHT22;17852;51.170;6.830;2024-03-08T10:06:54;8.60;99.90
31231;DHT22;17852;51.170;6.830;2024-03-08T10:09:21;8.70;99.90
31231;DHT22;17852;51.170;6.830;2024-03-08T10:11:53;8.80;99.90
31231;DHT22;17852;51.170;6.830;2024-03-08T10:14:21;8.90;99.90
31231;DHT22;17852;51.170;6.830;2024-03-08T10:16:49;8.90;99.90
31231;DHT22;17852;51.170;6.830;2024-03-08T10:19:23;9.00;99.90
31231;DHT22;17852;51.170;6.830;2024-03-08T10:21:49;9.00;99.90
31231;DHT22;17852;51.170;6.830;2024-03-08T10:24:18;9.10;99.90
31231;DHT22;17852;51.170;6.830;2024-03-08T10:26:46;9.20;99.90
31231;DHT22;17852;51.170;6.830;2024-03-08T10:29:13;9.30;99.90
31231;DHT22;17852;51.170;6.830;2024-03-08T10:31:43;9.30;99.90
31231;DHT22;17852;51.170;6.830;2024-03-08T10:34:13;9.40;99.90
31231;DHT22;17852;51.170;6.830;2024-03-08T10:36:39;9.40;99.90
31231;DHT22;17852;51.170;6.830;2024-03-08T10:39:21;9.50;99.90
31231;DHT22;17852;51.170;6.830;2024-03-08T10:41:57;9.60;99.90
31231;DHT22;17852;51.170;6.830;2024-03-08T10:47:17;9.90;99.90
31231;DHT22;17852;51.170;6.830;2024-03-08T10:50:18;10.00;99.90
31231;DHT22;17852;51.170;6.830;2024-03-08T10:52:51;10.00;99.90
31231;DHT22;17852;51.170;6.830;2024-03-08T10:55:18;10.00;99.90
31231;DHT22;17852;51.170;6.830;2024-03-08T10:57:46;9.90;99.90
31231;DHT22;17852;51.170;6.830;2024-03-08T11:00:15;9.80;99.90
31231;DHT22;17852;51.170;6.830;2024-03-08T11:02:47;9.90;99.90
31231;DHT22;17852;51.170;6.830;2024-03-08T11:08:01;10.10;99.90
31231;DHT22;17852;51.170;6.830;2024-03-08T11:10:30;10.10;99.90
31231;DHT22;17852;51.170;6.830;2024-03-08T11:12:57;10.10;99.90
31231;DHT22;17852;51.170;6.830;2024-03-08T11:15:24;10.30;99.90
31231;DHT22;17852;51.170;6.830;2024-03-08T11:17:50;10.30;99.90
31231;DHT22;17852;51.170;6.830;2024-03-08T11:20:18;10.40;99.90
31231;DHT22;17852;51.170;6.830;2024-03-08T11:22:51;10.40;99.90
31231;DHT22;17852;51.170;6.830;2024-03-08T11:25:39;10.60;99.90
31231;DHT22;17852;51.170;6.830;2024-03-08T11:28:16;10.60;99.90
31231;DHT22;17852;51.170;6.830;2024-03-08T11:33:31;10.70;99.90
31231;DHT22;17852;51.170;6.830;2024-03-08T11:36:11;10.70;99.90
31231;DHT22;17852;51.170;6.830;2024-03-08T11:38:45;10.80;99.90
31231;DHT22;17852;51.170;6.830;2024-03-08T11:41:17;11.00;99.90
31231;DHT22;17852;51.170;6.830;2024-03-08T11:43:47;11.20;99.90
31231;DHT22;17852;51.170;6.830;2024-03-08T11:46:16;11.10;99.90
31231;DHT22;17852;51.170;6.830;2024-03-08T11:48:44;11.40;99.90
31231;DHT22;17852;51.170;6.830;2024-03-08T11:51:19;11.50;99.90
31231;DHT22;17852;51.170;6.830;2024-03-08T11:53:53;11.60;99.90
31231;DHT22;17852;51.170;6.830;2024-03-08T11:56:21;11.60;99.70
31231;DHT22;17852;51.170;6.830;2024-03-08T11:58:55;11.60;97.20
31231;DHT22;17852;51.170;6.830;2024-03-08T12:01:27;11.70;99.00
31231;DHT22;17852;51.170;6.830;2024-03-08T12:04:00;11.70;97.10
31231;DHT22;17852;51.170;6.830;2024-03-08T12:06:36;11.60;96.60
31231;DHT22;17852;51.170;6.830;2024-03-08T12:09:08;11.70;93.90
31231;DHT22;17852;51.170;6.830;2024-03-08T12:11:36;11.70;94.50
31231;DHT22;17852;51.170;6.830;2024-03-08T12:14:04;11.80;98.90
31231;DHT22;17852;51.170;6.830;2024-03-08T12:16:31;11.80;97.40
31231;DHT22;17852;51.170;6.830;2024-03-08T12:18:58;11.80;97.30
31231;DHT22;17852;51.170;6.830;2024-03-08T12:21:27;11.90;97.10
31231;DHT22;17852;51.170;6.830;2024-03-08T12:24:08;11.90;93.20
31231;DHT22;17852;51.170;6.830;2024-03-08T12:26:38;12.00;92.40
31231;DHT22;17852;51.170;6.830;2024-03-08T12:29:19;12.10;91.30
31231;DHT22;17852;51.170;6.830;2024-03-08T12:31:55;15.00;75.00
31231;DHT22;17852;51.170;6.830;2024-03-08T12:34:24;18.30;57.60
31231;DHT22;17852;51.170;6.830;2024-03-08T12:36:51;20.70;50.80
31231;DHT22;17852;51.170;6.830;2024-03-08T12:39:21;21.60;46.90
31231;DHT22;17852;51.170;6.830;2024-03-08T12:41:54;20.70;44.90
31231;DHT22;17852;51.170;6.830;2024-03-08T12:44:20;21.20;46.20
31231;DHT22;17852;51.170;6.830;2024-03-08T12:46:50;21.40;45.00
31231;DHT22;17852;51.170;6.830;2024-03-08T12:49:17;22.10;43.40
31231;DHT22;17852;51.170;6.830;2024-03-08T12:51:46;22.40;42.20
31231;DHT22;17852;51.170;6.830;2024-03-08T12:54:12;22.10;41.40
31231;DHT22;17852;51.170;6.830;2024-03-08T12:56:38;23.00;41.50
31231;DHT22;17852;51.170;6.830;2024-03-08T12:59:06;23.00;42.00
31231;DHT22;17852;51.170;6.830;2024-03-08T13:01:33;22.90;41.80
31231;DHT22;17852;51.170;6.830;2024-03-08T13:03:59;22.50;42.80
31231;DHT22;17852;51.170;6.830;2024-03-08T13:06:28;23.20;41.50
31231;DHT22;17852;51.170;6.830;2024-03-08T13:08:56;23.00;40.50
31231;DHT22;17852;51.170;6.830;2024-03-08T13:11:23;22.10;41.60
31231;DHT22;17852;51.170;6.830;2024-03-08T13:13:49;22.60;42.00
31231;DHT22;17852;51.170;6.830;2024-03-08T13:16:15;22.70;40.80
31231;DHT22;17852;51.170;6.830;2024-03-08T13:18:43;22.10;38.90
31231;DHT22;17852;51.170;6.830;2024-03-08T13:21:12;22.10;41.60
31231;DHT22;17852;51.170;6.830;2024-03-08T13:23:41;22.80;40.00
31231;DHT22;17852;51.170;6.830;2024-03-08T13:26:10;23.00;41.00
31231;DHT22;17852;51.170;6.830;2024-03-08T13:28:49;22.50;40.30
31231;DHT22;17852;51.170;6.830;2024-03-08T13:31:21;22.50;40.80
31231;DHT22;17852;51.170;6.830;2024-03-08T13:33:50;23.90;38.70
31231;DHT22;17852;51.170;6.830;2024-03-08T13:36:23;23.40;39.30
31231;DHT22;17852;51.170;6.830;2024-03-08T13:39:03;22.90;39.80
31231;DHT22;17852;51.170;6.830;2024-03-08T13:41:41;23.50;40.20
31231;DHT22;17852;51.170;6.830;2024-03-08T13:44:07;23.60;38.30
31231;DHT22;17852;51.170;6.830;2024-03-08T13:46:42;24.10;38.30
31231;DHT22;17852;51.170;6.830;2024-03-08T13:49:11;23.90;39.50
31231;DHT22;17852;51.170;6.830;2024-03-08T13:51:37;26.10;36.40
31231;DHT22;17852;51.170;6.830;2024-03-08T13:54:04;25.50;36.80
31231;DHT22;17852;51.170;6.830;2024-03-08T13:56:32;24.80;37.10
31231;DHT22;17852;51.170;6.830;2024-03-08T13:59:01;25.30;37.50
31231;DHT22;17852;51.170;6.830;2024-03-08T14:01:30;26.10;36.40
31231;DHT22;17852;51.170;6.830;2024-03-08T14:04:01;26.60;34.20
31231;DHT22;17852;51.170;6.830;2024-03-08T14:06:29;27.50;34.10
31231;DHT22;17852;51.170;6.830;2024-03-08T14:08:55;25.90;34.10
31231;DHT22;17852;51.170;6.830;2024-03-08T14:11:23;26.40;34.40
31231;DHT22;17852;51.170;6.830;2024-03-08T14:13:49;26.40;34.00
31231;DHT22;17852;51.170;6.830;2024-03-08T14:16:17;26.40;34.20
31231;DHT22;17852;51.170;6.830;2024-03-08T14:18:43;25.60;33.10
31231;DHT22;17852;51.170;6.830;2024-03-08T14:21:09;25.30;34.30
31231;DHT22;17852;51.170;6.830;2024-03-08T14:23:41;25.10;36.20
31231;DHT22;17852;51.170;6.830;2024-03-08T14:26:08;25.00;33.20
31231;DHT22;17852;51.170;6.830;2024-03-08T14:28:35;22.60;36.40
31231;DHT22;17852;51.170;6.830;2024-03-08T14:31:01;23.80;36.50
31231;DHT22;17852;51.170;6.830;2024-03-08T14:33:28;24.40;36.80
31231;DHT22;17852;51.170;6.830;2024-03-08T14:35:57;25.60;35.70
31231;DHT22;17852;51.170;6.830;2024-03-08T14:38:26;25.40;35.50
31231;DHT22;17852;51.170;6.830;2024-03-08T14:40:52;23.40;36.90
31231;DHT22;17852;51.170;6.830;2024-03-08T14:43:18;24.90;36.50
31231;DHT22;17852;51.170;6.830;2024-03-08T14:45:47;24.70;35.50
31231;DHT22;17852;51.170;6.830;2024-03-08T14:48:19;24.70;35.90
31231;DHT22;17852;51.170;6.830;2024-03-08T14:50:45;24.50;36.10
31231;DHT22;17852;51.170;6.830;2024-03-08T14:53:21;24.80;36.10
31231;DHT22;17852;51.170;6.830;2024-03-08T14:55:47;25.20;36.10
31231;DHT22;17852;51.170;6.830;2024-03-08T14:58:13;25.90;35.40
31231;DHT22;17852;51.170;6.830;2024-03-08T15:00:42;24.90;35.80
31231;DHT22;17852;51.170;6.830;2024-03-08T15:03:12;24.60;37.10
31231;DHT22;17852;51.170;6.830;2024-03-08T15:05:42;22.70;38.80
31231;DHT22;17852;51.170;6.830;2024-03-08T15:08:13;22.80;39.50
31231;DHT22;17852;51.170;6.830;2024-03-08T15:10:48;23.50;38.80
31231;DHT22;17852;51.170;6.830;2024-03-08T15:13:23;23.80;38.30
31231;DHT22;17852;51.170;6.830;2024-03-08T15:15:57;22.60;37.90
31231;DHT22;17852;51.170;6.830;2024-03-08T15:18:26;23.20;38.30
31231;DHT22;17852;51.170;6.830;2024-03-08T15:20:56;23.60;39.00
31231;DHT22;17852;51.170;6.830;2024-03-08T15:23:23;23.50;38.90
31231;DHT22;17852;51.170;6.830;2024-03-08T15:25:52;24.40;38.60
31231;DHT22;17852;51.170;6.830;2024-03-08T15:28:21;23.70;38.40
31231;DHT22;17852;51.170;6.830;2024-03-08T15:30:52;23.30;38.80
31231;DHT22;17852;51.170;6.830;2024-03-08T15:33:28;22.70;39.80
31231;DHT22;17852;51.170;6.830;2024-03-08T15:35:59;22.30;39.90
31231;DHT22;17852;51.170;6.830;2024-03-08T15:38:29;22.10;40.80
31231;DHT22;17852;51.170;6.830;2024-03-08T15:40:55;21.40;41.00
31231;DHT22;17852;51.170;6.830;2024-03-08T15:43:22;22.20;41.30
31231;DHT22;17852;51.170;6.830;2024-03-08T15:45:48;21.70;41.60
31231;DHT22;17852;51.170;6.830;2024-03-08T15:48:15;21.10;41.10
31231;DHT22;17852;51.170;6.830;2024-03-08T15:50:44;20.40;43.50
31231;DHT22;17852;51.170;6.830;2024-03-08T15:53:11;20.60;43.60
31231;DHT22;17852;51.170;6.830;2024-03-08T15:55:38;20.70;44.10
31231;DHT22;17852;51.170;6.830;2024-03-08T15:58:08;20.50;44.30
31231;DHT22;17852;51.170;6.830;2024-03-08T16:00:34;20.20;45.50
31231;DHT22;17852;51.170;6.830;2024-03-08T16:03:12;19.90;45.20